logo tempoitalia

Diretta Meteo Lione-Bron, Franciamartedì 17 maggio ore 05:30

Mappa
Sereno 14 °C Sereno 24 Ore: T.min 14 T.max 30
Ponente Nord Km/h 1.8 Punto di rugiada: 11 °C Umidità: 82% Visibilità: 10 Km
Il sole sorge alle: 06:04 Il sole tramonta alle: 21:08
17 Maggio 2022 05:30 tempo osservato: Sereno Sereno 14 82 1020 vento: Nord N 1.8
17 Maggio 2022 05:00 tempo osservato: Sereno Sereno 14 82 1020 vento: Nord N 3.7
17 Maggio 2022 04:30 tempo osservato: Sereno Sereno 14 82 1020 vento: Nord N 1.8
17 Maggio 2022 04:00 tempo osservato: Sereno Sereno 15 82 1020 vento: Nord N 3.7
17 Maggio 2022 03:30 tempo osservato: Sereno Sereno 16 77 1020 vento: Nord N 5.5
17 Maggio 2022 03:00 tempo osservato: Sereno Sereno 15 82 1020 vento: Nord N 5.5
17 Maggio 2022 02:30 tempo osservato: Sereno Sereno 15 82 1020 vento: Nord N 3.7
17 Maggio 2022 02:00 tempo osservato: Sereno Sereno 16 77 1020 vento: Nord N 3.7
17 Maggio 2022 01:30 tempo osservato: Sereno Sereno 16 77 1020 vento: Nord N 5.5
17 Maggio 2022 01:00 tempo osservato: Sereno Sereno 17 72 1020 vento: Nord N 1.8
17 Maggio 2022 00:30 tempo osservato: Sereno Sereno 17 72 1020 vento: Nord N 1.8
17 Maggio 2022 00:00 tempo osservato: Sereno Sereno 17 67 1020 vento: Nord N 3.7
16 Maggio 2022 23:30 tempo osservato: Sereno Sereno 19 59 1020 vento: Nord N 3.7
16 Maggio 2022 23:00 tempo osservato: Sereno Sereno 21 52 1020 vento: Nord N 5.5
16 Maggio 2022 22:30 tempo osservato: Sereno Sereno 21 52 1020 vento: Nord N 5.5
16 Maggio 2022 22:00 tempo osservato: Sereno Sereno 23 46 1019 vento: Nord N/NE 11.1
16 Maggio 2022 21:30 tempo osservato: Sereno Sereno 24 43 1019 vento: Nord NE 9.3
16 Maggio 2022 21:00 tempo osservato: Sereno Sereno 25 41 1019 vento: Nord N/NE 9.3
16 Maggio 2022 20:30 tempo osservato: Sereno Sereno 26 36 1018 vento: Nord N/NE 13
16 Maggio 2022 20:00 tempo osservato: Sereno Sereno 27 34 1018 vento: Nord N 13
16 Maggio 2022 19:30 tempo osservato: Sereno Sereno 28 30 1018 vento: Nord N/NE 11.1
16 Maggio 2022 19:00 tempo osservato: Sereno Sereno 28 28 1018 vento: Nord N/NE 9.3
16 Maggio 2022 18:30 tempo osservato: Sereno Sereno 29 28 1018 vento: Nord N/NE 11.1
16 Maggio 2022 18:00 tempo osservato: Sereno Sereno 29 28 1018 vento: Nord E 7.4
16 Maggio 2022 17:30 tempo osservato: Sereno Sereno 29 28 1018 vento: Nord NE 11.1
16 Maggio 2022 17:00 tempo osservato: Sereno Sereno 29 28 1018 vento: Nord N 7.4
16 Maggio 2022 16:30 tempo osservato: Sereno Sereno 29 28 1018 vento: Nord N/NO 9.3
16 Maggio 2022 16:00 tempo osservato: Sereno Sereno 30 27 1019 vento: Nord S 11.1
16 Maggio 2022 15:30 tempo osservato: Sereno Sereno 30 27 1019 vento: Nord O 7.4
16 Maggio 2022 15:00 tempo osservato: Sereno Sereno 29 26 1019 vento: Nord N 7.4
16 Maggio 2022 14:30 tempo osservato: Sereno Sereno 28 28 1019 vento: Nord S/SE 11.1
16 Maggio 2022 14:00 tempo osservato: Sereno Sereno 28 28 1019 vento: Nord SE 18.5
16 Maggio 2022 13:30 tempo osservato: Sereno Sereno 27 30 1020 vento: Nord S/SE 18.5
16 Maggio 2022 13:00 tempo osservato: Sereno Sereno 27 30 1020 vento: Nord S/SO 13
16 Maggio 2022 12:30 tempo osservato: Sereno Sereno 26 31 1020 vento: Nord S 13
16 Maggio 2022 12:00 tempo osservato: Sereno Sereno 25 33 1020 vento: Nord S/SO 11.1
16 Maggio 2022 11:30 tempo osservato: Sereno Sereno 23 38 1020 vento: Nord S/SE 13
16 Maggio 2022 11:00 tempo osservato: Sereno Sereno 22 37 1020 vento: Nord S 13
16 Maggio 2022 10:30 tempo osservato: Sereno Sereno 21 43 1020 vento: Nord SE 9.3
16 Maggio 2022 10:00 tempo osservato: Sereno Sereno 21 40 1020 vento: Nord S/SE 13
16 Maggio 2022 09:30 tempo osservato: Sereno Sereno 19 48 1020 vento: Nord S 16.7
16 Maggio 2022 09:00 tempo osservato: Sereno Sereno 18 55 1020 vento: Nord N 5.5
16 Maggio 2022 08:30 tempo osservato: Sereno Sereno 17 59 1020 vento: Nord SE 11.1
16 Maggio 2022 08:00 tempo osservato: Sereno Sereno 17 59 1020 vento: Nord S/SE 9.3
16 Maggio 2022 07:30 tempo osservato: Sereno Sereno 16 72 1019 vento: Nord E 7.4
16 Maggio 2022 07:00 tempo osservato: Sereno Sereno 16 77 1019 vento: Nord N 5.5
16 Maggio 2022 06:30 tempo osservato: Sereno Sereno 16 72 1019 vento: Nord E 9.3
16 Maggio 2022 06:00 tempo osservato: Pioggia Pioggia 15 76 1019 vento: Nord E 7.4